sensor_id;sensor_type;location;lat;lon;timestamp;P1;durP1;ratioP1;P2;durP2;ratioP2
19006;SDS011;9636;47.382;8.480;2023-02-17T00:02:02;2.87;;;2.47;;
19006;SDS011;9636;47.382;8.480;2023-02-17T00:04:31;2.80;;;2.43;;
19006;SDS011;9636;47.382;8.480;2023-02-17T00:06:59;2.67;;;2.40;;
19006;SDS011;9636;47.382;8.480;2023-02-17T00:09:26;3.17;;;2.50;;
19006;SDS011;9636;47.382;8.480;2023-02-17T00:11:53;2.80;;;2.50;;
19006;SDS011;9636;47.382;8.480;2023-02-17T00:14:20;2.97;;;2.50;;
19006;SDS011;9636;47.382;8.480;2023-02-17T00:16:48;2.73;;;2.43;;
19006;SDS011;9636;47.382;8.480;2023-02-17T00:19:15;2.63;;;2.40;;
19006;SDS011;9636;47.382;8.480;2023-02-17T00:21:53;2.80;;;2.60;;
19006;SDS011;9636;47.382;8.480;2023-02-17T00:24:21;3.13;;;2.83;;
19006;SDS011;9636;47.382;8.480;2023-02-17T00:26:48;4.03;;;2.90;;
19006;SDS011;9636;47.382;8.480;2023-02-17T00:29:15;2.90;;;2.40;;
19006;SDS011;9636;47.382;8.480;2023-02-17T00:31:43;2.80;;;2.40;;
19006;SDS011;9636;47.382;8.480;2023-02-17T00:34:10;2.97;;;2.50;;
19006;SDS011;9636;47.382;8.480;2023-02-17T00:36:38;2.87;;;2.50;;
19006;SDS011;9636;47.382;8.480;2023-02-17T00:39:06;3.90;;;2.73;;
19006;SDS011;9636;47.382;8.480;2023-02-17T00:41:34;2.70;;;2.30;;
19006;SDS011;9636;47.382;8.480;2023-02-17T00:44:01;2.50;;;2.30;;
19006;SDS011;9636;47.382;8.480;2023-02-17T00:46:28;3.00;;;2.50;;
19006;SDS011;9636;47.382;8.480;2023-02-17T00:48:55;3.57;;;2.60;;
19006;SDS011;9636;47.382;8.480;2023-02-17T00:51:22;2.90;;;2.20;;
19006;SDS011;9636;47.382;8.480;2023-02-17T00:53:49;4.80;;;2.77;;
19006;SDS011;9636;47.382;8.480;2023-02-17T00:56:18;2.77;;;2.40;;
19006;SDS011;9636;47.382;8.480;2023-02-17T00:58:46;3.40;;;2.50;;
19006;SDS011;9636;47.382;8.480;2023-02-17T01:01:13;3.10;;;2.80;;
19006;SDS011;9636;47.382;8.480;2023-02-17T01:03:40;2.90;;;2.60;;
19006;SDS011;9636;47.382;8.480;2023-02-17T01:06:09;3.90;;;2.97;;
19006;SDS011;9636;47.382;8.480;2023-02-17T01:08:36;3.23;;;2.63;;
19006;SDS011;9636;47.382;8.480;2023-02-17T01:11:03;2.93;;;2.40;;
19006;SDS011;9636;47.382;8.480;2023-02-17T01:13:32;3.50;;;2.77;;
19006;SDS011;9636;47.382;8.480;2023-02-17T01:15:59;4.03;;;2.50;;
19006;SDS011;9636;47.382;8.480;2023-02-17T01:18:26;2.80;;;2.53;;
19006;SDS011;9636;47.382;8.480;2023-02-17T01:20:53;3.20;;;2.60;;
19006;SDS011;9636;47.382;8.480;2023-02-17T01:23:21;3.80;;;2.80;;
19006;SDS011;9636;47.382;8.480;2023-02-17T01:25:48;3.07;;;2.27;;
19006;SDS011;9636;47.382;8.480;2023-02-17T01:28:16;3.10;;;2.80;;
19006;SDS011;9636;47.382;8.480;2023-02-17T01:30:46;3.00;;;2.67;;
19006;SDS011;9636;47.382;8.480;2023-02-17T01:33:13;3.00;;;2.70;;
19006;SDS011;9636;47.382;8.480;2023-02-17T01:35:40;2.93;;;2.50;;
19006;SDS011;9636;47.382;8.480;2023-02-17T01:38:08;2.73;;;2.53;;
19006;SDS011;9636;47.382;8.480;2023-02-17T01:40:35;3.00;;;2.70;;
19006;SDS011;9636;47.382;8.480;2023-02-17T01:43:02;2.53;;;2.33;;
19006;SDS011;9636;47.382;8.480;2023-02-17T01:45:40;3.43;;;2.27;;
19006;SDS011;9636;47.382;8.480;2023-02-17T01:48:16;2.57;;;2.37;;
19006;SDS011;9636;47.382;8.480;2023-02-17T01:50:45;2.90;;;2.40;;
19006;SDS011;9636;47.382;8.480;2023-02-17T01:53:15;2.60;;;2.40;;
19006;SDS011;9636;47.382;8.480;2023-02-17T01:55:44;2.83;;;2.40;;
19006;SDS011;9636;47.382;8.480;2023-02-17T01:58:13;2.70;;;2.40;;
19006;SDS011;9636;47.382;8.480;2023-02-17T02:00:41;2.60;;;2.40;;
19006;SDS011;9636;47.382;8.480;2023-02-17T02:03:09;2.97;;;2.47;;
19006;SDS011;9636;47.382;8.480;2023-02-17T02:05:40;2.40;;;2.20;;
19006;SDS011;9636;47.382;8.480;2023-02-17T02:08:10;2.77;;;2.30;;
19006;SDS011;9636;47.382;8.480;2023-02-17T02:10:38;3.57;;;2.77;;
19006;SDS011;9636;47.382;8.480;2023-02-17T02:13:05;2.60;;;2.40;;
19006;SDS011;9636;47.382;8.480;2023-02-17T02:15:33;2.70;;;2.20;;
19006;SDS011;9636;47.382;8.480;2023-02-17T02:18:15;2.80;;;2.50;;
19006;SDS011;9636;47.382;8.480;2023-02-17T02:23:40;2.40;;;2.20;;
19006;SDS011;9636;47.382;8.480;2023-02-17T02:29:07;2.83;;;2.50;;
19006;SDS011;9636;47.382;8.480;2023-02-17T02:31:41;2.53;;;2.33;;
19006;SDS011;9636;47.382;8.480;2023-02-17T02:34:14;3.40;;;2.30;;
19006;SDS011;9636;47.382;8.480;2023-02-17T02:36:43;3.77;;;2.40;;
19006;SDS011;9636;47.382;8.480;2023-02-17T02:39:11;2.87;;;2.40;;
19006;SDS011;9636;47.382;8.480;2023-02-17T02:41:40;2.40;;;2.20;;
19006;SDS011;9636;47.382;8.480;2023-02-17T02:44:09;2.57;;;2.27;;
19006;SDS011;9636;47.382;8.480;2023-02-17T02:46:38;2.80;;;2.20;;
19006;SDS011;9636;47.382;8.480;2023-02-17T02:49:06;2.80;;;2.50;;
19006;SDS011;9636;47.382;8.480;2023-02-17T02:51:37;3.73;;;2.67;;
19006;SDS011;9636;47.382;8.480;2023-02-17T02:54:12;3.57;;;2.40;;
19006;SDS011;9636;47.382;8.480;2023-02-17T02:56:46;2.47;;;2.27;;
19006;SDS011;9636;47.382;8.480;2023-02-17T02:59:18;2.50;;;2.30;;
19006;SDS011;9636;47.382;8.480;2023-02-17T03:01:50;2.57;;;2.37;;
19006;SDS011;9636;47.382;8.480;2023-02-17T03:04:19;2.63;;;2.43;;
19006;SDS011;9636;47.382;8.480;2023-02-17T03:06:52;2.77;;;2.33;;
19006;SDS011;9636;47.382;8.480;2023-02-17T03:09:21;3.00;;;2.50;;
19006;SDS011;9636;47.382;8.480;2023-02-17T03:11:49;2.67;;;2.43;;
19006;SDS011;9636;47.382;8.480;2023-02-17T03:14:17;2.77;;;2.20;;
19006;SDS011;9636;47.382;8.480;2023-02-17T03:16:45;2.47;;;2.20;;
19006;SDS011;9636;47.382;8.480;2023-02-17T03:19:13;2.30;;;2.10;;
19006;SDS011;9636;47.382;8.480;2023-02-17T03:21:41;2.43;;;2.23;;
19006;SDS011;9636;47.382;8.480;2023-02-17T03:24:10;2.70;;;2.37;;
19006;SDS011;9636;47.382;8.480;2023-02-17T03:26:38;2.73;;;2.27;;
19006;SDS011;9636;47.382;8.480;2023-02-17T03:29:05;3.03;;;2.37;;
19006;SDS011;9636;47.382;8.480;2023-02-17T03:31:32;2.80;;;2.47;;
19006;SDS011;9636;47.382;8.480;2023-02-17T03:33:59;2.63;;;2.33;;
19006;SDS011;9636;47.382;8.480;2023-02-17T03:36:26;2.40;;;2.20;;
19006;SDS011;9636;47.382;8.480;2023-02-17T03:38:54;2.40;;;2.20;;
19006;SDS011;9636;47.382;8.480;2023-02-17T03:41:22;2.87;;;2.47;;
19006;SDS011;9636;47.382;8.480;2023-02-17T03:43:49;2.57;;;2.37;;
19006;SDS011;9636;47.382;8.480;2023-02-17T03:46:17;2.73;;;2.40;;
19006;SDS011;9636;47.382;8.480;2023-02-17T03:48:44;2.73;;;2.40;;
19006;SDS011;9636;47.382;8.480;2023-02-17T03:51:12;2.50;;;2.30;;
19006;SDS011;9636;47.382;8.480;2023-02-17T03:53:39;2.63;;;2.27;;
19006;SDS011;9636;47.382;8.480;2023-02-17T03:56:06;2.20;;;2.00;;
19006;SDS011;9636;47.382;8.480;2023-02-17T03:58:35;3.37;;;2.70;;
19006;SDS011;9636;47.382;8.480;2023-02-17T04:01:02;2.50;;;2.30;;
19006;SDS011;9636;47.382;8.480;2023-02-17T04:03:29;2.93;;;2.23;;
19006;SDS011;9636;47.382;8.480;2023-02-17T04:05:57;2.53;;;2.00;;
19006;SDS011;9636;47.382;8.480;2023-02-17T04:08:24;2.60;;;2.40;;
19006;SDS011;9636;47.382;8.480;2023-02-17T04:10:51;2.70;;;2.20;;
19006;SDS011;9636;47.382;8.480;2023-02-17T04:13:18;2.53;;;2.30;;
19006;SDS011;9636;47.382;8.480;2023-02-17T04:15:47;3.03;;;2.30;;
19006;SDS011;9636;47.382;8.480;2023-02-17T04:18:15;2.30;;;2.10;;
19006;SDS011;9636;47.382;8.480;2023-02-17T04:20:42;3.07;;;2.47;;
19006;SDS011;9636;47.382;8.480;2023-02-17T04:23:09;3.03;;;2.13;;
19006;SDS011;9636;47.382;8.480;2023-02-17T04:25:38;2.40;;;2.20;;
19006;SDS011;9636;47.382;8.480;2023-02-17T04:28:06;2.50;;;2.30;;
19006;SDS011;9636;47.382;8.480;2023-02-17T04:30:33;2.80;;;2.20;;
19006;SDS011;9636;47.382;8.480;2023-02-17T04:33:02;2.57;;;2.30;;
19006;SDS011;9636;47.382;8.480;2023-02-17T04:35:29;2.60;;;2.20;;
19006;SDS011;9636;47.382;8.480;2023-02-17T04:37:56;2.63;;;2.13;;
19006;SDS011;9636;47.382;8.480;2023-02-17T04:40:24;2.50;;;2.30;;
19006;SDS011;9636;47.382;8.480;2023-02-17T04:42:51;2.57;;;2.37;;
19006;SDS011;9636;47.382;8.480;2023-02-17T04:45:18;2.43;;;2.20;;
19006;SDS011;9636;47.382;8.480;2023-02-17T04:47:45;4.00;;;2.30;;
19006;SDS011;9636;47.382;8.480;2023-02-17T04:50:14;2.47;;;2.27;;
19006;SDS011;9636;47.382;8.480;2023-02-17T04:52:41;2.57;;;2.37;;
19006;SDS011;9636;47.382;8.480;2023-02-17T04:55:08;2.50;;;2.13;;
19006;SDS011;9636;47.382;8.480;2023-02-17T04:57:36;2.23;;;2.03;;
19006;SDS011;9636;47.382;8.480;2023-02-17T05:00:03;2.43;;;2.17;;
19006;SDS011;9636;47.382;8.480;2023-02-17T05:02:31;2.23;;;2.03;;
19006;SDS011;9636;47.382;8.480;2023-02-17T05:04:58;3.30;;;2.50;;
19006;SDS011;9636;47.382;8.480;2023-02-17T05:07:27;2.70;;;2.30;;
19006;SDS011;9636;47.382;8.480;2023-02-17T05:09:54;3.77;;;2.60;;
19006;SDS011;9636;47.382;8.480;2023-02-17T05:12:21;2.40;;;1.90;;
19006;SDS011;9636;47.382;8.480;2023-02-17T05:14:48;2.50;;;2.10;;
19006;SDS011;9636;47.382;8.480;2023-02-17T05:17:15;2.30;;;2.10;;
19006;SDS011;9636;47.382;8.480;2023-02-17T05:19:42;2.40;;;2.20;;
19006;SDS011;9636;47.382;8.480;2023-02-17T05:22:10;2.70;;;2.50;;
19006;SDS011;9636;47.382;8.480;2023-02-17T05:24:38;2.27;;;2.07;;
19006;SDS011;9636;47.382;8.480;2023-02-17T05:27:05;2.30;;;2.10;;
19006;SDS011;9636;47.382;8.480;2023-02-17T05:29:32;2.30;;;2.10;;
19006;SDS011;9636;47.382;8.480;2023-02-17T05:32:00;2.20;;;2.00;;
19006;SDS011;9636;47.382;8.480;2023-02-17T05:34:27;4.97;;;2.57;;
19006;SDS011;9636;47.382;8.480;2023-02-17T05:36:54;2.23;;;2.03;;
19006;SDS011;9636;47.382;8.480;2023-02-17T05:39:21;2.43;;;2.23;;
19006;SDS011;9636;47.382;8.480;2023-02-17T05:41:49;2.63;;;2.17;;
19006;SDS011;9636;47.382;8.480;2023-02-17T05:44:17;2.30;;;2.10;;
19006;SDS011;9636;47.382;8.480;2023-02-17T05:46:53;2.40;;;2.20;;
19006;SDS011;9636;47.382;8.480;2023-02-17T05:49:20;2.57;;;2.10;;
19006;SDS011;9636;47.382;8.480;2023-02-17T05:51:47;2.40;;;2.20;;
19006;SDS011;9636;47.382;8.480;2023-02-17T05:54:15;2.30;;;2.10;;
19006;SDS011;9636;47.382;8.480;2023-02-17T05:56:42;2.30;;;2.10;;
19006;SDS011;9636;47.382;8.480;2023-02-17T05:59:10;2.40;;;2.20;;
19006;SDS011;9636;47.382;8.480;2023-02-17T06:01:37;2.30;;;2.10;;
19006;SDS011;9636;47.382;8.480;2023-02-17T06:04:04;2.20;;;1.93;;
19006;SDS011;9636;47.382;8.480;2023-02-17T06:06:32;2.73;;;2.13;;
19006;SDS011;9636;47.382;8.480;2023-02-17T06:08:59;2.33;;;2.13;;
19006;SDS011;9636;47.382;8.480;2023-02-17T06:11:26;2.30;;;2.10;;
19006;SDS011;9636;47.382;8.480;2023-02-17T06:13:53;2.57;;;2.07;;
19006;SDS011;9636;47.382;8.480;2023-02-17T06:16:21;2.40;;;2.20;;
19006;SDS011;9636;47.382;8.480;2023-02-17T06:18:49;2.87;;;2.30;;
19006;SDS011;9636;47.382;8.480;2023-02-17T06:21:16;2.70;;;2.30;;
19006;SDS011;9636;47.382;8.480;2023-02-17T06:23:43;3.67;;;2.20;;
19006;SDS011;9636;47.382;8.480;2023-02-17T06:26:10;2.20;;;2.00;;
19006;SDS011;9636;47.382;8.480;2023-02-17T06:28:38;2.80;;;2.10;;
19006;SDS011;9636;47.382;8.480;2023-02-17T06:31:05;2.93;;;2.30;;
19006;SDS011;9636;47.382;8.480;2023-02-17T06:33:33;2.13;;;1.93;;
19006;SDS011;9636;47.382;8.480;2023-02-17T06:36:00;2.00;;;1.83;;
19006;SDS011;9636;47.382;8.480;2023-02-17T06:38:28;2.30;;;2.00;;
19006;SDS011;9636;47.382;8.480;2023-02-17T06:40:55;2.30;;;2.10;;
19006;SDS011;9636;47.382;8.480;2023-02-17T06:43:22;2.57;;;2.10;;
19006;SDS011;9636;47.382;8.480;2023-02-17T06:45:49;2.30;;;2.07;;
19006;SDS011;9636;47.382;8.480;2023-02-17T06:48:16;2.33;;;2.13;;
19006;SDS011;9636;47.382;8.480;2023-02-17T06:50:44;2.20;;;2.00;;
19006;SDS011;9636;47.382;8.480;2023-02-17T06:53:11;2.40;;;2.20;;
19006;SDS011;9636;47.382;8.480;2023-02-17T06:55:39;3.57;;;2.27;;
19006;SDS011;9636;47.382;8.480;2023-02-17T06:58:06;3.07;;;2.00;;
19006;SDS011;9636;47.382;8.480;2023-02-17T07:00:33;2.33;;;2.03;;
19006;SDS011;9636;47.382;8.480;2023-02-17T07:03:00;2.27;;;1.90;;
19006;SDS011;9636;47.382;8.480;2023-02-17T07:05:27;2.37;;;2.17;;
19006;SDS011;9636;47.382;8.480;2023-02-17T07:07:57;1.90;;;1.80;;
19006;SDS011;9636;47.382;8.480;2023-02-17T07:10:24;2.07;;;1.90;;
19006;SDS011;9636;47.382;8.480;2023-02-17T07:12:51;2.17;;;1.93;;
19006;SDS011;9636;47.382;8.480;2023-02-17T07:15:18;2.53;;;1.90;;
19006;SDS011;9636;47.382;8.480;2023-02-17T07:17:45;2.10;;;2.00;;
19006;SDS011;9636;47.382;8.480;2023-02-17T07:20:13;2.27;;;2.07;;
19006;SDS011;9636;47.382;8.480;2023-02-17T07:22:40;1.90;;;1.80;;
19006;SDS011;9636;47.382;8.480;2023-02-17T07:25:08;2.23;;;1.93;;
19006;SDS011;9636;47.382;8.480;2023-02-17T07:27:36;2.20;;;2.00;;
19006;SDS011;9636;47.382;8.480;2023-02-17T07:30:03;2.20;;;2.00;;
19006;SDS011;9636;47.382;8.480;2023-02-17T07:32:31;2.10;;;1.90;;
19006;SDS011;9636;47.382;8.480;2023-02-17T07:34:59;3.47;;;2.17;;
19006;SDS011;9636;47.382;8.480;2023-02-17T07:37:26;2.07;;;1.87;;
19006;SDS011;9636;47.382;8.480;2023-02-17T07:39:53;2.23;;;2.03;;
19006;SDS011;9636;47.382;8.480;2023-02-17T07:42:22;2.47;;;2.13;;
19006;SDS011;9636;47.382;8.480;2023-02-17T07:44:49;2.63;;;2.07;;
19006;SDS011;9636;47.382;8.480;2023-02-17T07:47:17;2.80;;;2.10;;
19006;SDS011;9636;47.382;8.480;2023-02-17T07:49:44;2.33;;;2.10;;
19006;SDS011;9636;47.382;8.480;2023-02-17T07:52:11;2.63;;;2.20;;
19006;SDS011;9636;47.382;8.480;2023-02-17T07:54:38;2.47;;;1.90;;
19006;SDS011;9636;47.382;8.480;2023-02-17T07:57:05;2.40;;;2.07;;
19006;SDS011;9636;47.382;8.480;2023-02-17T07:59:33;2.40;;;2.17;;
19006;SDS011;9636;47.382;8.480;2023-02-17T08:02:00;2.33;;;2.03;;
19006;SDS011;9636;47.382;8.480;2023-02-17T08:04:28;2.13;;;1.80;;
19006;SDS011;9636;47.382;8.480;2023-02-17T08:06:56;2.10;;;1.73;;
19006;SDS011;9636;47.382;8.480;2023-02-17T08:09:23;2.10;;;1.90;;
19006;SDS011;9636;47.382;8.480;2023-02-17T08:12:09;2.20;;;2.00;;
19006;SDS011;9636;47.382;8.480;2023-02-17T08:14:59;2.10;;;1.90;;
19006;SDS011;9636;47.382;8.480;2023-02-17T08:17:26;2.10;;;1.90;;
19006;SDS011;9636;47.382;8.480;2023-02-17T08:19:54;2.20;;;1.90;;
19006;SDS011;9636;47.382;8.480;2023-02-17T08:22:21;2.27;;;2.03;;
19006;SDS011;9636;47.382;8.480;2023-02-17T08:24:48;3.73;;;2.10;;
19006;SDS011;9636;47.382;8.480;2023-02-17T08:27:18;1.90;;;1.80;;
19006;SDS011;9636;47.382;8.480;2023-02-17T08:29:46;2.20;;;1.90;;
19006;SDS011;9636;47.382;8.480;2023-02-17T08:32:15;2.40;;;2.20;;
19006;SDS011;9636;47.382;8.480;2023-02-17T08:34:42;2.30;;;2.00;;
19006;SDS011;9636;47.382;8.480;2023-02-17T08:37:09;2.23;;;2.00;;
19006;SDS011;9636;47.382;8.480;2023-02-17T08:39:36;2.17;;;1.97;;
19006;SDS011;9636;47.382;8.480;2023-02-17T08:42:04;2.53;;;2.10;;
19006;SDS011;9636;47.382;8.480;2023-02-17T08:44:32;2.77;;;2.20;;
19006;SDS011;9636;47.382;8.480;2023-02-17T08:47:00;2.40;;;2.20;;
19006;SDS011;9636;47.382;8.480;2023-02-17T08:49:30;2.30;;;2.10;;
19006;SDS011;9636;47.382;8.480;2023-02-17T08:51:58;2.43;;;2.23;;
19006;SDS011;9636;47.382;8.480;2023-02-17T08:54:25;2.10;;;1.90;;
19006;SDS011;9636;47.382;8.480;2023-02-17T08:56:52;2.67;;;2.10;;
19006;SDS011;9636;47.382;8.480;2023-02-17T08:59:20;1.70;;;1.60;;
19006;SDS011;9636;47.382;8.480;2023-02-17T09:01:47;2.17;;;1.73;;
19006;SDS011;9636;47.382;8.480;2023-02-17T09:04:14;2.87;;;1.90;;
19006;SDS011;9636;47.382;8.480;2023-02-17T09:06:43;1.90;;;1.60;;
19006;SDS011;9636;47.382;8.480;2023-02-17T09:09:12;2.43;;;2.10;;
19006;SDS011;9636;47.382;8.480;2023-02-17T09:11:40;2.10;;;1.90;;
19006;SDS011;9636;47.382;8.480;2023-02-17T09:14:07;2.70;;;2.30;;
19006;SDS011;9636;47.382;8.480;2023-02-17T09:16:35;2.10;;;1.90;;
19006;SDS011;9636;47.382;8.480;2023-02-17T09:19:02;2.27;;;1.97;;
19006;SDS011;9636;47.382;8.480;2023-02-17T09:21:30;3.80;;;2.07;;
19006;SDS011;9636;47.382;8.480;2023-02-17T09:23:58;2.03;;;1.83;;
19006;SDS011;9636;47.382;8.480;2023-02-17T09:26:25;2.47;;;2.17;;
19006;SDS011;9636;47.382;8.480;2023-02-17T09:28:52;2.93;;;2.00;;
19006;SDS011;9636;47.382;8.480;2023-02-17T09:31:20;2.77;;;2.23;;
19006;SDS011;9636;47.382;8.480;2023-02-17T09:33:48;2.43;;;1.90;;
19006;SDS011;9636;47.382;8.480;2023-02-17T09:36:16;2.20;;;2.00;;
19006;SDS011;9636;47.382;8.480;2023-02-17T09:38:44;6.10;;;2.17;;
19006;SDS011;9636;47.382;8.480;2023-02-17T09:41:15;7.43;;;2.00;;
19006;SDS011;9636;47.382;8.480;2023-02-17T09:43:43;6.20;;;2.10;;
19006;SDS011;9636;47.382;8.480;2023-02-17T09:46:12;5.93;;;2.03;;
19006;SDS011;9636;47.382;8.480;2023-02-17T09:48:40;8.90;;;2.07;;
19006;SDS011;9636;47.382;8.480;2023-02-17T09:51:08;6.67;;;2.13;;
19006;SDS011;9636;47.382;8.480;2023-02-17T09:53:40;5.53;;;1.70;;
19006;SDS011;9636;47.382;8.480;2023-02-17T09:56:09;4.30;;;1.90;;
19006;SDS011;9636;47.382;8.480;2023-02-17T09:58:39;5.90;;;1.60;;
19006;SDS011;9636;47.382;8.480;2023-02-17T10:01:08;4.67;;;1.80;;
19006;SDS011;9636;47.382;8.480;2023-02-17T10:03:36;2.07;;;1.63;;
19006;SDS011;9636;47.382;8.480;2023-02-17T10:06:07;6.20;;;1.70;;
19006;SDS011;9636;47.382;8.480;2023-02-17T10:08:39;2.90;;;2.10;;
19006;SDS011;9636;47.382;8.480;2023-02-17T10:11:10;5.20;;;1.80;;
19006;SDS011;9636;47.382;8.480;2023-02-17T10:13:41;5.17;;;1.90;;
19006;SDS011;9636;47.382;8.480;2023-02-17T10:16:10;3.00;;;2.00;;
19006;SDS011;9636;47.382;8.480;2023-02-17T10:18:43;4.57;;;2.20;;
19006;SDS011;9636;47.382;8.480;2023-02-17T10:21:11;4.40;;;2.00;;
19006;SDS011;9636;47.382;8.480;2023-02-17T10:23:43;5.93;;;2.10;;
19006;SDS011;9636;47.382;8.480;2023-02-17T10:26:13;10.17;;;2.20;;
19006;SDS011;9636;47.382;8.480;2023-02-17T10:28:46;2.47;;;1.90;;
19006;SDS011;9636;47.382;8.480;2023-02-17T10:31:17;3.63;;;2.10;;
19006;SDS011;9636;47.382;8.480;2023-02-17T10:33:47;4.50;;;1.97;;
19006;SDS011;9636;47.382;8.480;2023-02-17T10:36:18;6.17;;;2.30;;
19006;SDS011;9636;47.382;8.480;2023-02-17T10:38:50;8.53;;;2.10;;
19006;SDS011;9636;47.382;8.480;2023-02-17T10:41:19;3.50;;;2.10;;
19006;SDS011;9636;47.382;8.480;2023-02-17T10:43:48;5.03;;;2.08;;
19006;SDS011;9636;47.382;8.480;2023-02-17T10:46:16;3.65;;;1.80;;
19006;SDS011;9636;47.382;8.480;2023-02-17T10:48:45;4.10;;;1.90;;
19006;SDS011;9636;47.382;8.480;2023-02-17T10:51:15;2.67;;;1.60;;
19006;SDS011;9636;47.382;8.480;2023-02-17T10:53:43;4.20;;;1.70;;
19006;SDS011;9636;47.382;8.480;2023-02-17T10:56:12;5.28;;;1.92;;
19006;SDS011;9636;47.382;8.480;2023-02-17T10:58:44;2.78;;;1.70;;
19006;SDS011;9636;47.382;8.480;2023-02-17T11:01:13;2.33;;;1.90;;
19006;SDS011;9636;47.382;8.480;2023-02-17T11:03:40;3.80;;;1.87;;
19006;SDS011;9636;47.382;8.480;2023-02-17T11:06:14;4.28;;;1.90;;
19006;SDS011;9636;47.382;8.480;2023-02-17T11:08:43;4.17;;;1.90;;
19006;SDS011;9636;47.382;8.480;2023-02-17T11:11:13;4.37;;;1.87;;
19006;SDS011;9636;47.382;8.480;2023-02-17T11:13:42;4.07;;;2.10;;
19006;SDS011;9636;47.382;8.480;2023-02-17T11:16:21;3.45;;;2.20;;
19006;SDS011;9636;47.382;8.480;2023-02-17T11:18:51;2.88;;;1.67;;
19006;SDS011;9636;47.382;8.480;2023-02-17T11:21:18;2.33;;;1.83;;
19006;SDS011;9636;47.382;8.480;2023-02-17T11:23:46;4.95;;;2.03;;
19006;SDS011;9636;47.382;8.480;2023-02-17T11:26:17;3.95;;;1.75;;
19006;SDS011;9636;47.382;8.480;2023-02-17T11:28:44;2.22;;;1.73;;
19006;SDS011;9636;47.382;8.480;2023-02-17T11:31:23;1.90;;;1.70;;
19006;SDS011;9636;47.382;8.480;2023-02-17T11:33:51;2.83;;;2.08;;
19006;SDS011;9636;47.382;8.480;2023-02-17T11:36:21;3.88;;;1.90;;
19006;SDS011;9636;47.382;8.480;2023-02-17T11:38:49;3.42;;;1.80;;
19006;SDS011;9636;47.382;8.480;2023-02-17T11:41:16;2.67;;;2.03;;
19006;SDS011;9636;47.382;8.480;2023-02-17T11:43:51;3.78;;;1.80;;
19006;SDS011;9636;47.382;8.480;2023-02-17T11:46:26;2.08;;;1.88;;
19006;SDS011;9636;47.382;8.480;2023-02-17T11:49:01;4.60;;;1.77;;
19006;SDS011;9636;47.382;8.480;2023-02-17T11:51:34;2.83;;;1.95;;
19006;SDS011;9636;47.382;8.480;2023-02-17T11:54:07;4.70;;;1.80;;
19006;SDS011;9636;47.382;8.480;2023-02-17T11:56:42;2.50;;;1.90;;
19006;SDS011;9636;47.382;8.480;2023-02-17T11:59:18;7.00;;;2.13;;
19006;SDS011;9636;47.382;8.480;2023-02-17T12:01:56;3.80;;;1.98;;
19006;SDS011;9636;47.382;8.480;2023-02-17T12:04:25;2.53;;;2.08;;
19006;SDS011;9636;47.382;8.480;2023-02-17T12:06:59;2.88;;;2.05;;
19006;SDS011;9636;47.382;8.480;2023-02-17T12:09:31;3.65;;;2.00;;
19006;SDS011;9636;47.382;8.480;2023-02-17T12:12:03;2.65;;;1.90;;
19006;SDS011;9636;47.382;8.480;2023-02-17T12:14:42;2.17;;;1.98;;
19006;SDS011;9636;47.382;8.480;2023-02-17T12:17:15;2.55;;;2.00;;
19006;SDS011;9636;47.382;8.480;2023-02-17T12:19:48;4.75;;;2.10;;
19006;SDS011;9636;47.382;8.480;2023-02-17T12:22:19;3.80;;;1.70;;
19006;SDS011;9636;47.382;8.480;2023-02-17T12:24:52;3.30;;;2.10;;
19006;SDS011;9636;47.382;8.480;2023-02-17T12:27:24;2.47;;;1.70;;
19006;SDS011;9636;47.382;8.480;2023-02-17T12:29:58;2.83;;;1.77;;
19006;SDS011;9636;47.382;8.480;2023-02-17T12:32:35;2.45;;;1.88;;
19006;SDS011;9636;47.382;8.480;2023-02-17T12:35:12;2.67;;;1.90;;
19006;SDS011;9636;47.382;8.480;2023-02-17T12:37:43;2.50;;;2.08;;
19006;SDS011;9636;47.382;8.480;2023-02-17T12:42:42;2.55;;;1.90;;
19006;SDS011;9636;47.382;8.480;2023-02-17T12:45:15;2.60;;;1.70;;
19006;SDS011;9636;47.382;8.480;2023-02-17T12:47:46;2.38;;;1.80;;
19006;SDS011;9636;47.382;8.480;2023-02-17T12:50:18;2.63;;;1.90;;
19006;SDS011;9636;47.382;8.480;2023-02-17T12:52:47;2.10;;;1.90;;
19006;SDS011;9636;47.382;8.480;2023-02-17T12:55:19;3.17;;;2.13;;
19006;SDS011;9636;47.382;8.480;2023-02-17T12:57:51;3.38;;;2.20;;
19006;SDS011;9636;47.382;8.480;2023-02-17T13:00:22;2.22;;;1.83;;
19006;SDS011;9636;47.382;8.480;2023-02-17T13:02:52;3.63;;;1.98;;
19006;SDS011;9636;47.382;8.480;2023-02-17T13:05:25;2.00;;;1.80;;
19006;SDS011;9636;47.382;8.480;2023-02-17T13:07:55;2.25;;;2.05;;
19006;SDS011;9636;47.382;8.480;2023-02-17T13:10:32;3.63;;;2.00;;
19006;SDS011;9636;47.382;8.480;2023-02-17T13:13:01;3.15;;;2.10;;
19006;SDS011;9636;47.382;8.480;2023-02-17T13:15:31;2.90;;;2.00;;
19006;SDS011;9636;47.382;8.480;2023-02-17T13:18:01;3.17;;;2.03;;
19006;SDS011;9636;47.382;8.480;2023-02-17T13:20:40;2.97;;;2.03;;
19006;SDS011;9636;47.382;8.480;2023-02-17T13:23:10;2.10;;;1.77;;
19006;SDS011;9636;47.382;8.480;2023-02-17T13:25:39;3.88;;;2.10;;
19006;SDS011;9636;47.382;8.480;2023-02-17T13:28:17;2.22;;;1.80;;
19006;SDS011;9636;47.382;8.480;2023-02-17T13:30:45;2.10;;;1.90;;
19006;SDS011;9636;47.382;8.480;2023-02-17T13:33:29;2.17;;;1.98;;
19006;SDS011;9636;47.382;8.480;2023-02-17T13:35:57;2.08;;;1.90;;
19006;SDS011;9636;47.382;8.480;2023-02-17T13:38:25;2.30;;;2.10;;
19006;SDS011;9636;47.382;8.480;2023-02-17T13:40:55;2.97;;;2.20;;
19006;SDS011;9636;47.382;8.480;2023-02-17T13:43:23;1.80;;;1.70;;
19006;SDS011;9636;47.382;8.480;2023-02-17T13:45:52;1.75;;;1.65;;
19006;SDS011;9636;47.382;8.480;2023-02-17T13:48:24;2.53;;;2.00;;
19006;SDS011;9636;47.382;8.480;2023-02-17T13:50:54;3.42;;;2.10;;
19006;SDS011;9636;47.382;8.480;2023-02-17T13:53:26;3.20;;;2.10;;
19006;SDS011;9636;47.382;8.480;2023-02-17T13:55:55;2.38;;;1.98;;
19006;SDS011;9636;47.382;8.480;2023-02-17T13:58:24;2.25;;;2.05;;
19006;SDS011;9636;47.382;8.480;2023-02-17T14:00:53;2.22;;;1.95;;
19006;SDS011;9636;47.382;8.480;2023-02-17T14:03:21;2.08;;;1.88;;
19006;SDS011;9636;47.382;8.480;2023-02-17T14:05:50;1.85;;;1.73;;
19006;SDS011;9636;47.382;8.480;2023-02-17T14:08:20;2.08;;;1.95;;
19006;SDS011;9636;47.382;8.480;2023-02-17T14:10:49;1.90;;;1.80;;
19006;SDS011;9636;47.382;8.480;2023-02-17T14:13:17;2.20;;;1.95;;
19006;SDS011;9636;47.382;8.480;2023-02-17T14:15:48;1.75;;;1.65;;
19006;SDS011;9636;47.382;8.480;2023-02-17T14:18:23;2.17;;;1.80;;
19006;SDS011;9636;47.382;8.480;2023-02-17T14:20:58;1.92;;;1.83;;
19006;SDS011;9636;47.382;8.480;2023-02-17T14:23:27;2.10;;;1.80;;
19006;SDS011;9636;47.382;8.480;2023-02-17T14:25:54;3.13;;;1.75;;
19006;SDS011;9636;47.382;8.480;2023-02-17T14:28:25;1.98;;;1.77;;
19006;SDS011;9636;47.382;8.480;2023-02-17T14:30:52;3.97;;;1.80;;
19006;SDS011;9636;47.382;8.480;2023-02-17T14:33:20;1.95;;;1.70;;
19006;SDS011;9636;47.382;8.480;2023-02-17T14:35:49;2.00;;;1.80;;
19006;SDS011;9636;47.382;8.480;2023-02-17T14:38:20;2.00;;;1.80;;
19006;SDS011;9636;47.382;8.480;2023-02-17T14:40:52;2.20;;;2.00;;
19006;SDS011;9636;47.382;8.480;2023-02-17T14:43:20;1.75;;;1.65;;
19006;SDS011;9636;47.382;8.480;2023-02-17T14:45:48;2.33;;;1.90;;
19006;SDS011;9636;47.382;8.480;2023-02-17T14:48:15;2.25;;;2.05;;
19006;SDS011;9636;47.382;8.480;2023-02-17T14:50:42;2.40;;;1.98;;
19006;SDS011;9636;47.382;8.480;2023-02-17T14:53:10;2.05;;;1.83;;
19006;SDS011;9636;47.382;8.480;2023-02-17T14:55:41;2.17;;;1.88;;
19006;SDS011;9636;47.382;8.480;2023-02-17T14:58:11;2.40;;;2.05;;
19006;SDS011;9636;47.382;8.480;2023-02-17T15:00:42;2.30;;;1.70;;
19006;SDS011;9636;47.382;8.480;2023-02-17T15:03:09;1.98;;;1.77;;
19006;SDS011;9636;47.382;8.480;2023-02-17T15:05:36;2.10;;;1.90;;
19006;SDS011;9636;47.382;8.480;2023-02-17T15:08:03;1.90;;;1.70;;
19006;SDS011;9636;47.382;8.480;2023-02-17T15:10:30;1.83;;;1.73;;
19006;SDS011;9636;47.382;8.480;2023-02-17T15:12:57;2.13;;;1.92;;
19006;SDS011;9636;47.382;8.480;2023-02-17T15:15:26;2.70;;;2.00;;
19006;SDS011;9636;47.382;8.480;2023-02-17T15:17:53;3.63;;;2.05;;
19006;SDS011;9636;47.382;8.480;2023-02-17T15:20:20;2.45;;;1.98;;